createdAt,value
2022-12-17T00:00:38.150Z,20.37
2022-12-17T00:03:24.232Z,20.80
2022-12-17T00:06:11.587Z,21.20
2022-12-17T00:08:57.157Z,22.20
2022-12-17T00:11:42.581Z,21.27
2022-12-17T00:14:29.473Z,21.03
2022-12-17T00:17:14.866Z,20.33
2022-12-17T00:20:00.324Z,21.37
2022-12-17T00:22:45.723Z,20.77
2022-12-17T00:25:31.282Z,21.70
2022-12-17T00:28:16.926Z,21.70
2022-12-17T00:31:10.337Z,21.40
2022-12-17T00:33:56.102Z,22.07
2022-12-17T00:36:42.105Z,22.67
2022-12-17T00:39:27.838Z,20.27
2022-12-17T00:42:15.027Z,21.47
2022-12-17T00:45:00.466Z,23.20
2022-12-17T00:47:47.334Z,21.20
2022-12-17T00:50:33.034Z,23.03
2022-12-17T00:53:18.529Z,19.70
2022-12-17T00:56:04.107Z,21.17
2022-12-17T00:58:49.581Z,22.20
2022-12-17T01:01:35.312Z,20.33
2022-12-17T01:04:22.887Z,22.33
2022-12-17T01:07:08.366Z,21.37
2022-12-17T01:09:53.895Z,21.63
2022-12-17T01:12:39.623Z,22.33
2022-12-17T01:15:26.406Z,21.47
2022-12-17T01:18:11.913Z,19.20
2022-12-17T01:20:58.651Z,20.27
2022-12-17T01:23:44.216Z,20.87
2022-12-17T01:26:29.794Z,19.77
2022-12-17T01:29:15.785Z,22.50
2022-12-17T01:32:01.932Z,19.80
2022-12-17T01:34:47.742Z,20.23
2022-12-17T01:37:36.034Z,21.50
2022-12-17T01:40:22.112Z,21.50
2022-12-17T01:43:07.654Z,21.40
2022-12-17T01:45:57.583Z,20.10
2022-12-17T01:48:50.424Z,19.43
2022-12-17T01:51:37.514Z,19.70
2022-12-17T01:54:25.249Z,19.83
2022-12-17T01:57:11.778Z,23.97
2022-12-17T02:00:05.904Z,20.40
2022-12-17T02:02:51.879Z,20.13
2022-12-17T02:05:50.680Z,19.53
2022-12-17T02:08:48.389Z,20.43
2022-12-17T02:11:48.279Z,18.47
2022-12-17T02:14:45.383Z,18.33
2022-12-17T02:17:39.813Z,19.30
2022-12-17T02:20:41.093Z,20.63
2022-12-17T02:23:40.487Z,19.97
2022-12-17T02:26:35.469Z,19.20
2022-12-17T02:29:25.791Z,21.23
2022-12-17T02:32:13.010Z,21.53
2022-12-17T02:35:06.300Z,22.53
2022-12-17T02:37:52.492Z,21.07
2022-12-17T02:40:42.173Z,21.63
2022-12-17T02:43:29.590Z,21.17
2022-12-17T02:46:16.524Z,21.27
2022-12-17T02:49:02.271Z,20.53
2022-12-17T02:51:48.236Z,20.60
2022-12-17T02:54:33.872Z,21.20
2022-12-17T02:57:19.304Z,21.27
2022-12-17T03:00:04.902Z,19.97
2022-12-17T03:02:51.796Z,20.70
2022-12-17T03:05:45.742Z,20.80
2022-12-17T03:08:31.982Z,21.60
2022-12-17T03:11:37.531Z,20.23
2022-12-17T03:14:23.262Z,19.70
2022-12-17T03:17:09.151Z,19.47
2022-12-17T03:19:55.889Z,20.10
2022-12-17T03:22:41.506Z,21.83
2022-12-17T03:25:27.448Z,19.93
2022-12-17T03:28:12.985Z,20.07
2022-12-17T03:30:58.688Z,21.10
2022-12-17T03:33:44.475Z,19.57
2022-12-17T03:36:36.201Z,20.87
2022-12-17T03:39:22.713Z,19.03
2022-12-17T03:42:08.297Z,21.20
2022-12-17T03:44:53.939Z,20.07
2022-12-17T03:47:39.551Z,20.43
2022-12-17T03:50:25.920Z,21.37
2022-12-17T03:53:12.705Z,19.33
2022-12-17T03:55:58.489Z,19.37
2022-12-17T03:58:43.924Z,22.13
2022-12-17T04:01:29.497Z,21.23
2022-12-17T04:04:15.270Z,20.97
2022-12-17T04:07:00.857Z,20.10
2022-12-17T04:09:47.626Z,21.03
2022-12-17T04:12:33.083Z,22.93
2022-12-17T04:15:18.933Z,21.20
2022-12-17T04:18:04.678Z,21.53
2022-12-17T04:20:50.158Z,21.90
2022-12-17T04:23:36.190Z,21.50
2022-12-17T04:26:23.318Z,21.63
2022-12-17T04:29:09.359Z,21.53
2022-12-17T04:31:54.825Z,21.90
2022-12-17T04:34:40.245Z,21.97
2022-12-17T04:37:25.803Z,23.97
2022-12-17T04:40:11.244Z,22.73
2022-12-17T04:42:58.027Z,22.20
2022-12-17T04:45:43.692Z,23.00
2022-12-17T04:48:32.120Z,20.97
2022-12-17T04:51:17.620Z,22.67
2022-12-17T04:54:03.165Z,23.17
2022-12-17T04:56:48.631Z,23.57
2022-12-17T04:59:35.604Z,21.50
2022-12-17T05:02:21.255Z,23.30
2022-12-17T05:05:07.049Z,22.70
2022-12-17T05:07:52.628Z,21.63
2022-12-17T05:10:38.238Z,23.20
2022-12-17T05:13:23.738Z,21.77
2022-12-17T05:16:14.212Z,21.87
2022-12-17T05:18:59.918Z,22.80
2022-12-17T05:21:45.379Z,21.10
2022-12-17T05:24:30.778Z,20.50
2022-12-17T05:27:16.702Z,21.07
2022-12-17T05:30:02.166Z,21.90
2022-12-17T05:32:49.080Z,21.57
2022-12-17T05:35:34.527Z,21.70
2022-12-17T05:38:23.286Z,20.63
2022-12-17T05:41:10.765Z,23.20
2022-12-17T05:43:56.183Z,21.53
2022-12-17T05:46:41.748Z,20.10
2022-12-17T05:49:28.878Z,20.33
2022-12-17T05:52:14.396Z,23.37
2022-12-17T05:54:59.877Z,22.57
2022-12-17T05:57:45.703Z,22.03
2022-12-17T06:00:32.455Z,22.23
2022-12-17T06:03:19.710Z,23.67
2022-12-17T06:06:12.434Z,21.33
2022-12-17T06:08:57.858Z,21.93
2022-12-17T06:11:43.376Z,21.97
2022-12-17T06:14:29.328Z,23.73
2022-12-17T06:17:14.849Z,22.93
2022-12-17T06:20:00.249Z,21.10
2022-12-17T06:22:47.106Z,22.17
2022-12-17T06:25:32.757Z,21.83
2022-12-17T06:28:19.898Z,23.33
2022-12-17T06:31:09.970Z,22.47
2022-12-17T06:33:56.157Z,21.00
2022-12-17T06:36:41.830Z,22.37
2022-12-17T06:39:29.457Z,22.40
2022-12-17T06:42:14.957Z,22.47
2022-12-17T06:45:00.521Z,23.33
2022-12-17T06:47:45.933Z,23.40
2022-12-17T06:50:31.414Z,24.30
2022-12-17T06:53:19.459Z,23.17
2022-12-17T06:56:06.272Z,22.87
2022-12-17T06:58:51.912Z,24.93
2022-12-17T07:01:38.237Z,25.80
2022-12-17T07:04:24.741Z,25.10
2022-12-17T07:07:10.397Z,24.27
2022-12-17T07:09:55.930Z,23.93
2022-12-17T07:12:44.074Z,24.93
2022-12-17T07:15:30.177Z,24.10
2022-12-17T07:18:18.349Z,22.73
2022-12-17T07:21:05.373Z,24.00
2022-12-17T07:23:51.509Z,23.73
2022-12-17T07:26:37.423Z,25.03
2022-12-17T07:29:24.653Z,26.13
2022-12-17T07:32:10.137Z,24.40
2022-12-17T07:34:56.003Z,25.73
2022-12-17T07:37:41.615Z,25.77
2022-12-17T07:40:28.817Z,25.40
2022-12-17T07:43:14.438Z,24.87
2022-12-17T07:46:01.498Z,27.07
2022-12-17T07:48:47.320Z,24.13
2022-12-17T07:51:33.336Z,25.13
2022-12-17T07:54:18.889Z,24.73
2022-12-17T07:57:04.658Z,25.60
2022-12-17T07:59:50.208Z,22.27
2022-12-17T08:02:37.817Z,24.90
2022-12-17T08:05:24.034Z,24.50
2022-12-17T08:08:09.473Z,25.10
2022-12-17T08:10:55.261Z,22.60
2022-12-17T08:13:40.710Z,23.23
2022-12-17T08:16:27.081Z,26.70
2022-12-17T08:19:14.229Z,26.20
2022-12-17T08:21:59.809Z,23.63
2022-12-17T08:24:45.488Z,24.10
2022-12-17T08:27:31.146Z,27.93
2022-12-17T08:30:16.633Z,22.53
2022-12-17T08:33:02.167Z,24.37
2022-12-17T08:35:48.712Z,24.03
2022-12-17T08:38:34.235Z,25.50
2022-12-17T08:41:20.302Z,23.87
2022-12-17T08:44:05.764Z,24.20
2022-12-17T08:46:51.204Z,25.37
2022-12-17T08:49:36.570Z,23.67
2022-12-17T08:52:24.898Z,24.47
2022-12-17T08:55:10.650Z,26.13
2022-12-17T08:57:55.923Z,24.23
2022-12-17T09:00:41.524Z,25.00
2022-12-17T09:03:27.773Z,24.17
2022-12-17T09:06:13.686Z,23.17
2022-12-17T09:09:00.580Z,25.13
2022-12-17T09:11:46.023Z,26.27
2022-12-17T09:14:31.543Z,24.83
2022-12-17T09:17:17.136Z,25.40
2022-12-17T09:20:02.738Z,25.43
2022-12-17T09:22:48.113Z,25.03
2022-12-17T09:25:34.818Z,24.03
2022-12-17T09:28:21.258Z,27.23
2022-12-17T09:31:07.058Z,23.07
2022-12-17T09:33:53.333Z,24.87
2022-12-17T09:36:39.077Z,21.93
2022-12-17T09:39:24.608Z,22.50
2022-12-17T09:42:23.412Z,23.13
2022-12-17T09:45:17.345Z,23.10
2022-12-17T09:48:16.333Z,21.53
2022-12-17T09:51:04.879Z,22.67
2022-12-17T09:53:57.359Z,20.60
2022-12-17T09:56:48.372Z,21.93
2022-12-17T09:59:40.762Z,21.50
2022-12-17T10:02:35.680Z,22.43
2022-12-17T10:05:25.863Z,18.77
2022-12-17T10:08:13.167Z,20.10
2022-12-17T10:11:04.707Z,21.93
2022-12-17T10:13:50.233Z,23.83
2022-12-17T10:16:47.540Z,22.93
2022-12-17T10:19:43.732Z,22.97
2022-12-17T10:22:34.579Z,22.40
2022-12-17T10:25:24.693Z,19.90
2022-12-17T10:28:10.762Z,23.60
2022-12-17T10:30:57.418Z,21.70
2022-12-17T10:33:44.417Z,25.47
2022-12-17T10:36:42.167Z,22.93
2022-12-17T10:39:36.748Z,27.10
2022-12-17T10:42:22.718Z,23.13
2022-12-17T10:45:08.581Z,24.23
2022-12-17T10:47:54.035Z,24.13
2022-12-17T10:50:42.674Z,22.37
2022-12-17T10:53:39.769Z,23.93
2022-12-17T10:56:38.888Z,23.43
2022-12-17T10:59:31.194Z,22.93
2022-12-17T11:02:22.853Z,24.43
2022-12-17T11:05:11.019Z,23.83
2022-12-17T11:08:01.841Z,24.63
2022-12-17T11:10:55.383Z,23.77
2022-12-17T11:13:52.040Z,24.87
2022-12-17T11:16:44.687Z,24.90
2022-12-17T11:19:51.823Z,26.37
2022-12-17T11:22:49.945Z,26.50
2022-12-17T11:26:01.301Z,24.87
2022-12-17T11:28:51.479Z,25.83
2022-12-17T11:32:09.555Z,25.70
2022-12-17T11:35:22.425Z,26.43
2022-12-17T11:38:22.598Z,24.60
2022-12-17T11:41:17.829Z,24.23
2022-12-17T11:44:14.477Z,27.70
2022-12-17T11:47:10.453Z,26.30
2022-12-17T11:50:08.579Z,26.30
2022-12-17T11:53:08.113Z,25.87
2022-12-17T11:56:03.295Z,27.50
2022-12-17T11:58:59.115Z,26.97
2022-12-17T12:01:55.365Z,27.43
2022-12-17T12:05:08.699Z,26.93
2022-12-17T12:08:04.926Z,26.70
2022-12-17T12:11:01.409Z,26.13
2022-12-17T12:13:58.660Z,25.87
2022-12-17T12:16:54.963Z,27.73
2022-12-17T12:19:49.081Z,25.57
2022-12-17T12:22:42.243Z,25.67
2022-12-17T12:25:47.162Z,25.53
2022-12-17T12:28:45.423Z,26.90
2022-12-17T12:31:46.734Z,26.03
2022-12-17T12:34:39.924Z,27.10
2022-12-17T12:37:30.922Z,26.80
2022-12-17T12:40:23.357Z,25.30
2022-12-17T12:43:20.384Z,27.10
2022-12-17T12:46:16.531Z,26.03
2022-12-17T12:49:13.658Z,25.80
2022-12-17T12:51:59.620Z,23.70
2022-12-17T12:54:49.620Z,26.93
2022-12-17T12:57:48.149Z,26.30
2022-12-17T13:00:53.646Z,24.07
2022-12-17T13:03:47.837Z,26.13
2022-12-17T13:06:45.583Z,24.97
2022-12-17T13:09:35.256Z,26.77
2022-12-17T13:12:25.498Z,24.37
2022-12-17T13:15:13.453Z,25.97
2022-12-17T13:17:54.498Z,25.10
2022-12-17T13:20:28.543Z,24.97
2022-12-17T13:23:24.849Z,25.40
2022-12-17T13:26:23.084Z,26.10
2022-12-17T13:29:10.181Z,24.20
2022-12-17T13:31:57.336Z,24.70
2022-12-17T13:34:35.061Z,25.63
2022-12-17T13:37:13.757Z,23.57
2022-12-17T13:39:56.180Z,22.37
2022-12-17T13:42:29.930Z,24.57
2022-12-17T13:44:59.187Z,23.97
2022-12-17T13:47:30.489Z,25.50
2022-12-17T13:52:47.359Z,24.53
2022-12-17T13:55:21.651Z,25.47
2022-12-17T13:57:50.701Z,26.43
2022-12-17T14:00:25.206Z,23.30
2022-12-17T14:02:53.672Z,23.67
2022-12-17T14:05:34.337Z,24.30
2022-12-17T14:08:05.294Z,21.13
2022-12-17T14:10:34.210Z,22.27
2022-12-17T14:13:08.080Z,22.87
2022-12-17T14:15:35.249Z,21.47
2022-12-17T14:18:04.090Z,22.37
2022-12-17T14:20:35.219Z,20.00
2022-12-17T14:23:06.261Z,20.70
2022-12-17T14:25:38.345Z,20.63
2022-12-17T14:28:21.715Z,21.43
2022-12-17T14:31:25.570Z,21.67
2022-12-17T14:33:38.429Z,22.53
2022-12-17T14:36:09.262Z,21.17
2022-12-17T14:38:38.852Z,21.17
2022-12-17T14:41:32.140Z,20.93
2022-12-17T14:44:01.922Z,21.60
2022-12-17T14:46:32.514Z,22.87
2022-12-17T14:49:02.249Z,20.97
2022-12-17T14:51:33.259Z,20.20
2022-12-17T14:54:32.955Z,22.40
2022-12-17T14:57:05.935Z,21.17
2022-12-17T14:59:35.907Z,20.37
2022-12-17T15:02:15.559Z,19.70
2022-12-17T15:04:42.698Z,20.53
2022-12-17T15:07:18.035Z,21.50
2022-12-17T15:09:45.541Z,19.33
2022-12-17T15:12:20.531Z,22.40
2022-12-17T15:14:47.791Z,20.63
2022-12-17T15:17:15.682Z,19.73
2022-12-17T15:19:42.651Z,21.03
2022-12-17T15:22:15.551Z,21.87
2022-12-17T15:24:43.699Z,21.80
2022-12-17T15:27:14.210Z,24.83
2022-12-17T15:29:43.387Z,25.90
2022-12-17T15:32:17.783Z,23.30
2022-12-17T15:34:45.033Z,25.27
2022-12-17T15:37:13.049Z,23.53
2022-12-17T15:39:41.486Z,25.40
2022-12-17T15:42:28.421Z,24.10
2022-12-17T15:44:56.715Z,25.27
2022-12-17T15:47:23.743Z,22.03
2022-12-17T15:49:52.146Z,23.57
2022-12-17T15:52:19.828Z,24.83
2022-12-17T15:54:46.843Z,24.33
2022-12-17T15:57:18.357Z,23.63
2022-12-17T15:59:45.783Z,23.00
2022-12-17T16:02:14.279Z,23.57
2022-12-17T16:04:41.403Z,25.57
2022-12-17T16:07:08.742Z,22.77
2022-12-17T16:09:35.783Z,25.03
2022-12-17T16:12:02.933Z,24.67
2022-12-17T16:14:30.111Z,25.23
2022-12-17T16:16:57.378Z,25.10
2022-12-17T16:19:26.482Z,25.33
2022-12-17T16:21:53.475Z,25.73
2022-12-17T16:24:20.543Z,23.17
2022-12-17T16:26:47.613Z,24.33
2022-12-17T16:29:14.721Z,25.00
2022-12-17T16:31:41.911Z,24.27
2022-12-17T16:34:10.732Z,23.43
2022-12-17T16:36:39.414Z,25.60
2022-12-17T16:39:06.806Z,24.40
2022-12-17T16:41:35.058Z,24.17
2022-12-17T16:44:02.247Z,26.67
2022-12-17T16:46:32.523Z,26.50
2022-12-17T16:49:06.715Z,24.87
2022-12-17T16:51:34.300Z,26.30
2022-12-17T16:54:08.370Z,25.70
2022-12-17T16:56:39.921Z,24.47
2022-12-17T16:59:09.465Z,24.43
2022-12-17T17:01:38.915Z,23.77
2022-12-17T17:04:09.011Z,24.33
2022-12-17T17:06:39.263Z,23.50
2022-12-17T17:09:08.850Z,25.10
2022-12-17T17:11:35.971Z,24.93
2022-12-17T17:14:03.702Z,25.30
2022-12-17T17:16:31.083Z,25.70
2022-12-17T17:18:58.128Z,24.47
2022-12-17T17:21:28.919Z,26.70
2022-12-17T17:23:59.654Z,24.33
2022-12-17T17:26:30.409Z,24.40
2022-12-17T17:28:57.840Z,22.87
2022-12-17T17:31:46.495Z,24.93
2022-12-17T17:34:15.052Z,22.23
2022-12-17T17:36:42.872Z,24.17
2022-12-17T17:39:10.141Z,23.47
2022-12-17T17:41:38.562Z,22.73
2022-12-17T17:44:08.413Z,23.37
2022-12-17T17:46:35.967Z,24.17
2022-12-17T17:49:07.123Z,23.90
2022-12-17T17:52:08.360Z,21.90
2022-12-17T17:54:24.690Z,24.33
2022-12-17T17:56:53.140Z,23.67
2022-12-17T17:59:20.462Z,25.20
2022-12-17T18:01:49.867Z,24.50
2022-12-17T18:04:20.109Z,24.73
2022-12-17T18:07:23.062Z,24.50
2022-12-17T18:09:35.757Z,23.80
2022-12-17T18:12:24.700Z,25.07
2022-12-17T18:15:13.068Z,26.23
2022-12-17T18:17:39.360Z,24.57
2022-12-17T18:20:09.464Z,23.47
2022-12-17T18:22:36.502Z,23.30
2022-12-17T18:25:04.242Z,26.17
2022-12-17T18:27:32.829Z,24.33
2022-12-17T18:29:59.891Z,25.23
2022-12-17T18:32:26.951Z,25.07
2022-12-17T18:34:54.019Z,24.63
2022-12-17T18:37:21.039Z,25.90
2022-12-17T18:39:49.011Z,25.70
2022-12-17T18:42:34.610Z,25.67
2022-12-17T18:45:03.197Z,25.67
2022-12-17T18:47:30.356Z,24.67
2022-12-17T18:49:57.524Z,25.53
2022-12-17T18:52:24.713Z,24.33
2022-12-17T18:54:51.814Z,24.00
2022-12-17T18:57:18.814Z,25.07
2022-12-17T18:59:45.831Z,23.60
2022-12-17T19:02:15.184Z,25.70
2022-12-17T19:04:42.766Z,25.40
2022-12-17T19:07:10.360Z,25.50
2022-12-17T19:09:39.377Z,25.33
2022-12-17T19:12:09.466Z,24.27
2022-12-17T19:14:37.120Z,25.13
2022-12-17T19:17:05.787Z,24.57
2022-12-17T19:19:34.086Z,23.30
2022-12-17T19:22:01.962Z,25.10
2022-12-17T19:24:29.286Z,24.33
2022-12-17T19:26:56.597Z,25.17
2022-12-17T19:29:23.650Z,23.83
2022-12-17T19:31:50.745Z,23.87
2022-12-17T19:34:19.703Z,24.47
2022-12-17T19:36:48.189Z,26.27
2022-12-17T19:39:18.788Z,26.40
2022-12-17T19:41:46.793Z,25.40
2022-12-17T19:44:16.345Z,25.60
2022-12-17T19:46:44.365Z,25.93
2022-12-17T19:49:12.337Z,24.83
2022-12-17T19:51:44.052Z,27.10
2022-12-17T19:54:15.037Z,26.77
2022-12-17T19:56:44.561Z,26.47
2022-12-17T19:59:13.649Z,25.40
2022-12-17T20:01:43.480Z,25.93
2022-12-17T20:04:12.674Z,25.07
2022-12-17T20:06:39.674Z,25.00
2022-12-17T20:09:07.484Z,27.63
2022-12-17T20:11:37.151Z,27.10
2022-12-17T20:14:08.446Z,27.20
2022-12-17T20:16:39.124Z,26.50
2022-12-17T20:19:10.461Z,30.37
2022-12-17T20:21:37.807Z,25.87
2022-12-17T20:24:05.501Z,27.40
2022-12-17T20:26:32.598Z,26.87
2022-12-17T20:29:01.068Z,28.03
2022-12-17T20:31:28.725Z,26.70
2022-12-17T20:33:56.009Z,26.53
2022-12-17T20:36:23.551Z,26.43
2022-12-17T20:38:50.502Z,26.10
2022-12-17T20:41:20.888Z,26.80
2022-12-17T20:43:48.398Z,27.77
2022-12-17T20:46:19.299Z,24.23
2022-12-17T20:48:47.291Z,25.43
2022-12-17T20:51:18.409Z,24.90
2022-12-17T20:53:46.289Z,22.73
2022-12-17T20:56:18.137Z,26.90
2022-12-17T20:58:45.649Z,25.43
2022-12-17T21:01:18.460Z,26.17
2022-12-17T21:03:47.009Z,24.00
2022-12-17T21:06:17.919Z,26.07
2022-12-17T21:08:50.206Z,25.70
2022-12-17T21:11:19.822Z,25.17
2022-12-17T21:13:47.070Z,24.23
2022-12-17T21:16:18.259Z,25.17
2022-12-17T21:18:46.093Z,25.03
2022-12-17T21:21:18.218Z,24.70
2022-12-17T21:23:46.863Z,25.20
2022-12-17T21:26:17.732Z,23.60
2022-12-17T21:28:47.765Z,24.90
2022-12-17T21:31:18.232Z,25.77
2022-12-17T21:33:49.443Z,23.77
2022-12-17T21:36:19.671Z,24.70
2022-12-17T21:38:47.720Z,26.23
2022-12-17T21:41:17.635Z,22.53
2022-12-17T21:43:44.675Z,24.47
2022-12-17T21:46:13.064Z,23.63
2022-12-17T21:48:42.997Z,24.70
2022-12-17T21:51:13.469Z,23.10
2022-12-17T21:53:43.393Z,23.03
2022-12-17T21:56:12.951Z,23.83
2022-12-17T21:58:42.499Z,23.37
2022-12-17T22:01:19.116Z,23.40
2022-12-17T22:03:53.569Z,24.27
2022-12-17T22:06:23.875Z,25.33
2022-12-17T22:09:01.706Z,24.93
2022-12-17T22:11:32.226Z,26.87
2022-12-17T22:14:18.942Z,25.07
2022-12-17T22:16:49.519Z,25.33
2022-12-17T22:19:22.804Z,24.07
2022-12-17T22:21:57.695Z,24.07
2022-12-17T22:24:25.698Z,23.60
2022-12-17T22:26:59.934Z,24.70
2022-12-17T22:29:46.593Z,24.23
2022-12-17T22:32:32.569Z,23.83
2022-12-17T22:37:17.435Z,24.80
2022-12-17T22:43:34.122Z,24.43
2022-12-17T22:44:35.376Z,24.30
2022-12-17T22:44:36.242Z,23.53
2022-12-17T22:46:19.304Z,23.67
2022-12-17T22:48:47.168Z,23.83
2022-12-17T22:51:24.712Z,23.97
2022-12-17T22:54:06.113Z,24.40
2022-12-17T22:57:26.690Z,22.73
2022-12-17T22:59:21.886Z,23.83
2022-12-17T23:01:48.949Z,22.57
2022-12-17T23:04:16.704Z,23.00
2022-12-17T23:06:46.006Z,24.83
2022-12-17T23:09:14.492Z,26.60
2022-12-17T23:11:41.449Z,21.37
2022-12-17T23:14:08.774Z,23.67
2022-12-17T23:16:38.689Z,24.30
2022-12-17T23:19:07.378Z,23.47
2022-12-17T23:21:35.105Z,22.63
2022-12-17T23:24:04.935Z,24.30
2022-12-17T23:26:34.694Z,23.17
2022-12-17T23:29:05.311Z,23.47
2022-12-17T23:31:35.962Z,23.10
2022-12-17T23:34:03.557Z,23.10
2022-12-17T23:36:30.497Z,24.27
2022-12-17T23:38:57.720Z,23.67
2022-12-17T23:41:29.287Z,23.63
2022-12-17T23:43:58.178Z,22.83
2022-12-17T23:46:28.954Z,22.53
2022-12-17T23:48:56.333Z,22.60
2022-12-17T23:51:25.950Z,23.43
2022-12-17T23:53:52.985Z,22.47
2022-12-17T23:56:22.751Z,22.47
2022-12-17T23:58:54.660Z,22.27
